Flight Track Log - Related Links

Times and Time Zones

All times are in EDT time to prevent confusion due to time zone crossing. See the AAY748 flight status page for this flight to view local times or setup timezone preferences in your user account.


Time Position Orientation Groundspeed Altitude Reporting Facility
EDT Latitude Longitude Course Direction KTS MPH feet Rate Location/Type
Fri 06:37:05 AM 28.7833 -81.2167 36° Northeast 187 215 900  Level Orlando TRACON
Fri 06:38:38 AM 28.8436 -81.1669 36° Northeast 208 239 3,500 1,922 Climbing Jacksonville Center
Fri 06:39:38 AM 28.9131 -81.2014 337° Northwest 219 252 5,800 2,550 Climbing Jacksonville Center
Fri 06:40:38 AM 28.9886 -81.2358 338° Northwest 248 285 8,600 2,500 Climbing Jacksonville Center
Fri 06:41:38 AM 29.0664 -81.2725 338° Northwest 269 310 10,800 1,650 Climbing Jacksonville Center
Fri 06:42:38 AM 29.1586 -81.3042 343° North 311 358 11,900 1,450 Climbing Jacksonville Center
Fri 06:43:38 AM 29.2656 -81.3406 343° North 357 411 13,700 2,000 Climbing Jacksonville Center
Fri 06:44:38 AM 29.3744 -81.3794 343° North 392 451 15,900 2,000 Climbing Jacksonville Center
Fri 06:45:38 AM 29.4836 -81.4231 341° North 407 468 17,700 1,750 Climbing Jacksonville Center
Fri 06:46:38 AM 29.5989 -81.4619 344° North 419 482 19,400 1,600 Climbing Jacksonville Center
Fri 06:47:38 AM 29.7183 -81.5031 343° North 430 495 20,900 1,450 Climbing Jacksonville Center
Fri 06:48:38 AM 29.8356 -81.5444 343° North 435 501 22,300 1,300 Climbing Jacksonville Center
Fri 06:49:38 AM 29.9592 -81.5908 342° North 448 516 23,500 1,200 Climbing Jacksonville Center
Fri 06:50:38 AM 30.0850 -81.6372 342° North 459 528 24,700 1,250 Climbing Jacksonville Center
Fri 06:51:38 AM 30.2086 -81.6786 344° North 459 528 26,000 1,350 Climbing Jacksonville Center
Fri 06:52:38 AM 30.3322 -81.7206 344° North 464 534 27,400 1,350 Climbing Jacksonville Center
Fri 06:53:38 AM 30.4600 -81.7647 343° North 464 534 28,700 1,300 Climbing Jacksonville Center
Fri 06:54:38 AM 30.5981 -81.8211 341° North 469 540 30,000 1,150 Climbing Jacksonville Center
Fri 06:55:38 AM 30.7175 -81.8656 342° North 464 534 31,000 500 Climbing Jacksonville Center
Fri 06:56:38 AM 30.8389 -81.9128 342° North 464 534 31,000  Level Jacksonville Center
Fri 06:57:38 AM 30.9583 -81.9550 343° North 459 528 31,000 -50 Level Jacksonville Center
Fri 06:58:38 AM 31.0756 -82.0000 342° North 453 521 30,900  Descending Jacksonville Center
Fri 06:59:38 AM 31.1950 -82.0450 342° North 442 509 31,000 50 Climbing Jacksonville Center
Fri 07:00:38 AM 31.3164 -82.0875 343° North 442 509 31,000  Level Jacksonville Center
Fri 07:01:38 AM 31.4378 -82.1353 341° North 449 517 31,000 -50 Level Jacksonville Center
Fri 07:02:38 AM 31.5592 -82.1806 342° North 454 522 30,900  Descending Jacksonville Center
Fri 07:03:38 AM 31.6761 -82.2236 343° North 443 510 31,000 34 Climbing Jacksonville Center
Fri 07:05:37 AM 31.9056 -82.3092 342° North 444 511 31,000  Level Atlanta Center
Fri 07:06:37 AM 32.0272 -82.3558 342° North 444 511 31,000  Level Atlanta Center
Fri 07:07:37 AM 32.1469 -82.4003 343° North 444 511 31,000  Level Atlanta Center
Fri 07:08:37 AM 32.2644 -82.4472 341° North 449 517 31,000 150 Level Atlanta Center
Fri 07:09:37 AM 32.3861 -82.4917 343° North 442 509 31,300 500 Climbing Atlanta Center
Fri 07:10:37 AM 32.5078 -82.5389 342° North 448 516 32,000 350 Climbing Atlanta Center
Fri 07:11:37 AM 32.6272 -82.5861 342° North 448 516 32,000  Level Atlanta Center
Fri 07:12:37 AM 32.7467 -82.6311 342° North 443 510 32,000  Level Atlanta Center
Fri 07:13:37 AM 32.8661 -82.6786 342° North 443 510 32,000  Level Atlanta Center
Fri 07:14:37 AM 32.9897 -82.7239 343° North 443 510 32,000  Level Atlanta Center
Fri 07:15:37 AM 33.1094 -82.7739 341° North 443 510 32,000  Level Atlanta Center
Fri 07:16:37 AM 33.2289 -82.8194 342° North 443 510 32,000 250 Level Atlanta Center
Fri 07:17:37 AM 33.3525 -82.8675 342° North 448 516 32,500 600 Climbing Atlanta Center
Fri 07:18:37 AM 33.4739 -82.9131 343° North 448 516 33,200 750 Climbing Atlanta Center
Fri 07:19:37 AM 33.5911 -82.9589 342° North 443 510 34,000 400 Climbing Atlanta Center
Fri 07:20:37 AM 33.7086 -83.0050 342° North 443 510 34,000  Level Atlanta Center
Fri 07:21:37 AM 33.8258 -83.0511 342° North 443 510 34,000  Level Atlanta Center
Fri 07:22:37 AM 33.9431 -83.0972 342° North 443 510 34,000  Level Atlanta Center
Fri 07:23:37 AM 34.0603 -83.1436 342° North 443 510 34,000  Level Atlanta Center
Fri 07:24:37 AM 34.1775 -83.1900 342° North 443 510 34,000  Level Atlanta Center
Fri 07:25:37 AM 34.2906 -83.2367 341° North 438 504 34,000  Level Atlanta Center
Fri 07:26:37 AM 34.4075 -83.2808 343° North 438 504 34,000  Level Atlanta Center
Fri 07:27:37 AM 34.5247 -83.3278 342° North 438 504 34,000  Level Atlanta Center
Fri 07:28:37 AM 34.6419 -83.3722 343° North 443 510 34,000  Level Atlanta Center
Fri 07:29:37 AM 34.7547 -83.4269 338° Northwest 443 510 34,000  Level Atlanta Center
Fri 07:30:37 AM 34.8719 -83.4717 343° North 443 510 34,000  Level Atlanta Center
Fri 07:31:37 AM 34.9911 -83.5217 341° North 443 510 34,000  Level Atlanta Center
Fri 07:32:37 AM 35.1103 -83.5692 342° North 444 511 34,000  Level Atlanta Center
Fri 07:33:37 AM 35.2294 -83.6167 342° North 444 511 34,000  Level Atlanta Center
Fri 07:34:37 AM 35.3483 -83.6644 342° North 444 511 34,000  Level Atlanta Center
Fri 07:35:37 AM 35.4653 -83.7150 341° North 444 511 34,000  Level Atlanta Center
Fri 07:36:37 AM 35.5864 -83.7656 341° North 444 511 34,000  Level Atlanta Center
Fri 07:37:37 AM 35.7033 -83.8136 342° North 444 511 34,000  Level Atlanta Center
Fri 07:38:37 AM 35.8203 -83.8594 342° North 444 511 34,000  Level Atlanta Center
Fri 07:39:37 AM 35.9392 -83.9003 344° North 444 511 34,000  Level Atlanta Center
Fri 07:40:37 AM 36.0603 -83.9181 353° North 434 499 34,000  Level Atlanta Center
Fri 07:41:18 AM 36.1353 -83.9275 354° North 444 511 34,000  Level Indianapolis Center
Fri 07:42:19 AM 36.2819 -83.9497 353° North 444 511 34,000  Level Indianapolis Center
Fri 07:43:20 AM 36.4047 -83.9672 353° North 444 511 34,000  Level Indianapolis Center
Fri 07:44:22 AM 36.5325 -83.9872 353° North 442 509 34,000  Level Indianapolis Center
Fri 07:45:23 AM 36.6528 -84.0044 353° North 438 504 34,000  Level Indianapolis Center
Fri 07:46:25 AM 36.7683 -84.0392 346° North 428 493 34,000  Level Indianapolis Center
Fri 07:47:26 AM 36.8794 -84.0883 341° North 422 486 34,000  Level Indianapolis Center
Fri 07:48:28 AM 36.9911 -84.1361 341° North 422 486 34,000  Level Indianapolis Center
Fri 07:49:29 AM 37.1036 -84.1831 342° North 422 486 34,000  Level Indianapolis Center
Fri 07:50:31 AM 37.2144 -84.2325 340° North 423 487 34,000  Level Indianapolis Center
Fri 07:51:32 AM 37.3261 -84.2811 341° North 423 487 34,000  Level Indianapolis Center
Fri 07:52:34 AM 37.4383 -84.3297 341° North 423 487 34,000  Level Indianapolis Center
Fri 07:53:35 AM 37.5681 -84.3858 341° North 422 486 34,000  Level Indianapolis Center
Fri 07:54:37 AM 37.6786 -84.4344 341° North 422 486 34,000  Level Indianapolis Center
Fri 07:55:38 AM 37.7903 -84.4836 341° North 422 486 34,000  Level Indianapolis Center
Fri 07:56:40 AM 37.8986 -84.5322 341° North 418 481 34,000  Level Indianapolis Center
Fri 07:57:41 AM 38.0078 -84.5797 341° North 415 478 34,000  Level Indianapolis Center
Fri 07:58:42 AM 38.1164 -84.6256 342° North 415 478 34,000  Level Indianapolis Center
Fri 07:59:44 AM 38.2219 -84.6750 340° North 409 471 34,000  Level Indianapolis Center
Fri 08:00:46 AM 38.3269 -84.7214 341° North 402 463 34,000  Level Indianapolis Center
Fri 08:01:47 AM 38.4500 -84.7758 341° North 402 463 34,000  Level Indianapolis Center
Fri 08:02:49 AM 38.5544 -84.8219 341° North 399 459 34,000  Level Indianapolis Center
Fri 08:03:50 AM 38.6489 -84.8642 341° North 398 458 34,000  Level Indianapolis Center
Fri 08:04:52 AM 38.7500 -84.9106 340° North 393 452 34,000  Level Indianapolis Center
Fri 08:05:53 AM 38.8525 -84.9567 341° North 393 452 34,000 -390 Level Indianapolis Center
Fri 08:06:55 AM 38.9753 -85.0125 341° North 392 451 33,200 -919 Descending Indianapolis Center
Fri 08:07:57 AM 39.0772 -85.0592 340° North 392 451 32,100 -1,171 Descending Indianapolis Center
Fri 08:08:58 AM 39.1811 -85.1064 341° North 392 451 30,800 -1,220 Descending Indianapolis Center
Fri 08:10:00 AM 39.2844 -85.1542 340° North 392 451 29,600 -1,113 Descending Indianapolis Center
Fri 08:11:02 AM 39.3908 -85.2044 340° North 403 464 28,500 -780 Descending Indianapolis Center
Fri 08:12:03 AM 39.5078 -85.2578 341° North 433 498 28,000 -244 Descending Indianapolis Center
Fri 08:13:05 AM 39.6283 -85.3133 340° North 453 521 28,000 -242 Level Indianapolis Center
Fri 08:14:07 AM 39.7703 -85.3794 340° North 455 524 27,500 -732 Descending Indianapolis Center
Fri 08:15:08 AM 39.8861 -85.4328 341° North 452 520 26,500 -1,024 Descending Indianapolis Center
Fri 08:16:10 AM 39.9961 -85.4850 340° North 436 502 25,400 -968 Descending Indianapolis Center
Fri 08:17:12 AM 40.1061 -85.5364 340° North 426 490 24,500 -968 Descending Indianapolis Center
Fri 08:18:14 AM 40.2167 -85.5889 340° North 426 490 23,400 -1,610 Descending Indianapolis Center
Fri 08:19:15 AM 40.3267 -85.6428 340° North 426 490 21,200 -1,659 Descending Indianapolis Center
Fri 08:20:17 AM 40.4544 -85.7058 339° North 416 479 20,000 -1,113 Descending Indianapolis Center
Fri 08:21:19 AM 40.5394 -85.7853 325° Northwest 385 443 18,900 -1,268 Descending Indianapolis Center
Fri 08:22:20 AM 40.6219 -85.8617 325° Northwest 370 426 17,400 -1,286 Descending Indianapolis Center
Fri 08:23:39 AM 40.7264 -85.9614 324° Northwest 362 417 15,900 -1,234 Descending Chicago Center
Fri 08:24:41 AM 40.8128 -86.0294 329° Northwest 363 418 14,500 -1,210 Descending Chicago Center
Fri 08:25:43 AM 40.9097 -86.0583 347° North 360 414 13,400 -1,065 Descending Chicago Center
Fri 08:26:45 AM 41.0033 -86.0911 345° North 351 404 12,300 -1,161 Descending Chicago Center
Fri 08:27:47 AM 41.1103 -86.1458 339° North 344 396 11,000 -1,016 Descending Chicago Center
Fri 08:28:49 AM 41.1942 -86.1892 339° North 326 375 10,200 -1,161 Descending Chicago Center
Fri 08:29:51 AM 41.2678 -86.2264 339° North 292 336 8,600 -1,548 Descending Chicago Center
Fri 08:30:53 AM 41.3425 -86.2644 339° North 289 333 7,000 -1,694 Descending Chicago Center
Fri 08:31:55 AM 41.4158 -86.3014 339° North 285 328 5,100 -968 Descending Chicago Center
Fri 08:32:57 AM 41.4892 -86.3383 339° North 283 326 5,000 -532 Descending Chicago Center
Fri 08:33:59 AM 41.5658 -86.3775 339° North 248 285 4,000 -1,113 Descending Chicago Center
Fri 08:35:01 AM 41.6292 -86.4097 339° North 245 282 2,700 -823 Descending Chicago Center
Fri 08:36:03 AM 41.6836 -86.4361 340° North 219 252 2,300 -387 Descending Chicago Center
Fri 08:37:05 AM 41.7039 -86.4000 53° Northeast 152 175 1,900 -532 Descending Chicago Center
Fri 08:38:07 AM 41.7033 -86.3539 91° East 134 154 1,200 -435 Descending Chicago Center
Fri 08:39:09 AM 41.7033 -86.3058 90° East 131 151 1,000 -194 Descending Chicago Center

Login

Don't have an account? Register now (free) for customized features, flight alerts, and more!